createdAt,value
2017-10-26T00:00:25.741Z,20.00
2017-10-26T00:03:01.861Z,18.60
2017-10-26T00:05:29.854Z,14.53
2017-10-26T00:07:57.783Z,17.60
2017-10-26T00:10:25.758Z,24.30
2017-10-26T00:12:54.479Z,16.93
2017-10-26T00:15:22.504Z,13.60
2017-10-26T00:17:50.439Z,16.43
2017-10-26T00:20:18.472Z,16.40
2017-10-26T00:22:46.405Z,15.20
2017-10-26T00:25:15.271Z,22.60
2017-10-26T00:27:43.196Z,15.52
2017-10-26T00:30:11.249Z,13.00
2017-10-26T00:32:39.373Z,12.18
2017-10-26T00:35:07.375Z,11.37
2017-10-26T00:37:35.350Z,11.95
2017-10-26T00:40:03.300Z,14.43
2017-10-26T00:42:31.315Z,16.67
2017-10-26T00:44:59.257Z,18.27
2017-10-26T00:47:27.257Z,12.10
2017-10-26T00:49:55.215Z,10.32
2017-10-26T00:52:23.391Z,12.73
2017-10-26T00:54:51.340Z,9.90
2017-10-26T00:57:19.374Z,12.03
2017-10-26T00:59:47.382Z,12.50
2017-10-26T01:02:20.379Z,12.93
2017-10-26T01:04:48.308Z,15.30
2017-10-26T01:07:16.300Z,18.53
2017-10-26T01:09:44.301Z,12.07
2017-10-26T01:12:12.273Z,13.18
2017-10-26T01:14:40.327Z,10.20
2017-10-26T01:17:08.380Z,9.73
2017-10-26T01:19:36.385Z,17.12
2017-10-26T01:22:05.206Z,11.73
2017-10-26T01:24:33.210Z,10.47
2017-10-26T01:27:01.258Z,12.07
2017-10-26T01:29:29.248Z,11.25
2017-10-26T01:31:58.455Z,13.07
2017-10-26T01:34:26.500Z,18.60
2017-10-26T01:36:54.545Z,18.30
2017-10-26T01:39:22.529Z,12.45
2017-10-26T01:41:50.559Z,10.90
2017-10-26T01:44:18.525Z,11.18
2017-10-26T01:46:46.629Z,14.05
2017-10-26T01:49:19.140Z,12.87
2017-10-26T01:51:47.400Z,15.73
2017-10-26T01:54:15.525Z,11.60
2017-10-26T01:56:43.540Z,13.90
2017-10-26T01:59:11.512Z,14.40
2017-10-26T02:01:39.537Z,16.77
2017-10-26T02:04:07.502Z,12.50
2017-10-26T02:06:35.528Z,15.30
2017-10-26T02:09:03.828Z,21.60
2017-10-26T02:11:31.882Z,12.83
2017-10-26T02:14:04.529Z,11.50
2017-10-26T02:16:32.614Z,15.20
2017-10-26T02:19:00.612Z,15.17
2017-10-26T02:21:28.649Z,13.20
2017-10-26T02:23:57.451Z,18.53
2017-10-26T02:26:25.453Z,13.43
2017-10-26T02:29:05.229Z,12.27
2017-10-26T02:31:35.928Z,14.20
2017-10-26T02:34:03.934Z,22.50
2017-10-26T02:36:31.859Z,13.60
2017-10-26T02:38:59.929Z,15.50
2017-10-26T02:41:27.875Z,14.20
2017-10-26T02:44:02.532Z,16.53
2017-10-26T02:46:30.498Z,11.30
2017-10-26T02:48:58.535Z,17.30
2017-10-26T02:51:26.479Z,12.63
2017-10-26T02:53:54.559Z,15.20
2017-10-26T02:56:22.531Z,12.48
2017-10-26T02:58:50.542Z,20.20
2017-10-26T03:01:18.529Z,17.40
2017-10-26T03:03:46.591Z,13.70
2017-10-26T03:06:14.539Z,15.43
2017-10-26T03:08:42.580Z,13.33
2017-10-26T03:11:10.509Z,12.73
2017-10-26T03:13:41.936Z,19.80
2017-10-26T03:16:09.888Z,13.00
2017-10-26T03:18:37.928Z,11.60
2017-10-26T03:21:05.866Z,12.23
2017-10-26T03:23:33.846Z,19.23
2017-10-26T03:26:01.786Z,12.65
2017-10-26T03:28:29.772Z,17.75
2017-10-26T03:30:58.469Z,15.25
2017-10-26T03:33:26.466Z,22.77
2017-10-26T03:35:54.411Z,15.95
2017-10-26T03:38:22.398Z,13.15
2017-10-26T03:40:50.334Z,24.95
2017-10-26T03:43:18.484Z,13.40
2017-10-26T03:45:46.455Z,14.70
2017-10-26T03:48:14.463Z,11.40
2017-10-26T03:50:42.386Z,12.32
2017-10-26T03:53:10.371Z,11.23
2017-10-26T03:55:38.306Z,13.40
2017-10-26T03:58:06.300Z,12.75
2017-10-26T04:00:34.254Z,10.90
2017-10-26T04:03:02.223Z,10.50
2017-10-26T04:05:30.198Z,12.15
2017-10-26T04:07:58.190Z,14.63
2017-10-26T04:10:26.874Z,10.82
2017-10-26T04:12:54.985Z,9.48
2017-10-26T04:15:24.255Z,12.88
2017-10-26T04:17:55.271Z,11.65
2017-10-26T04:20:27.294Z,10.43
2017-10-26T04:23:05.448Z,12.73
2017-10-26T04:25:44.297Z,11.33
2017-10-26T04:28:21.975Z,10.23
2017-10-26T04:31:03.393Z,13.13
2017-10-26T04:33:42.830Z,15.30
2017-10-26T04:36:18.894Z,11.55
2017-10-26T04:38:47.185Z,9.27
2017-10-26T04:41:15.185Z,9.60
2017-10-26T04:43:43.199Z,11.00
2017-10-26T04:46:11.200Z,14.23
2017-10-26T04:48:39.567Z,12.63
2017-10-26T04:51:07.544Z,10.82
2017-10-26T04:53:35.734Z,10.40
2017-10-26T04:56:04.022Z,10.18
2017-10-26T04:58:32.001Z,13.20
2017-10-26T05:00:59.993Z,11.60
2017-10-26T05:03:27.970Z,14.50
2017-10-26T05:05:55.893Z,10.02
2017-10-26T05:08:23.898Z,9.10
2017-10-26T05:10:51.867Z,15.45
2017-10-26T05:13:19.871Z,7.20
2017-10-26T05:15:47.785Z,7.45
2017-10-26T05:18:15.715Z,11.85
2017-10-26T05:20:44.450Z,10.77
2017-10-26T05:23:12.504Z,10.13
2017-10-26T05:25:40.477Z,9.40
2017-10-26T05:28:08.404Z,10.45
2017-10-26T05:30:36.423Z,12.95
2017-10-26T05:33:04.415Z,10.25
2017-10-26T05:35:32.529Z,11.48
2017-10-26T05:38:01.318Z,12.77
2017-10-26T05:40:29.397Z,11.27
2017-10-26T05:42:57.424Z,12.90
2017-10-26T05:45:25.484Z,8.63
2017-10-26T05:47:53.427Z,13.82
2017-10-26T05:50:21.485Z,11.02
2017-10-26T05:52:50.633Z,13.77
2017-10-26T05:55:18.629Z,9.93
2017-10-26T05:57:46.616Z,9.25
2017-10-26T06:00:15.373Z,10.10
2017-10-26T06:02:43.315Z,13.90
2017-10-26T06:05:11.274Z,16.00
2017-10-26T06:07:39.222Z,9.82
2017-10-26T06:10:07.173Z,9.15
2017-10-26T06:12:35.098Z,8.82
2017-10-26T06:15:03.118Z,10.48
2017-10-26T06:17:31.042Z,7.40
2017-10-26T06:19:59.036Z,15.13
2017-10-26T06:22:26.961Z,9.30
2017-10-26T06:24:54.931Z,13.43
2017-10-26T06:27:22.850Z,7.90
2017-10-26T06:29:50.822Z,10.52
2017-10-26T06:32:18.738Z,8.80
2017-10-26T06:34:46.686Z,8.23
2017-10-26T06:37:15.401Z,16.73
2017-10-26T06:39:43.410Z,11.77
2017-10-26T06:42:11.329Z,11.12
2017-10-26T06:44:39.305Z,10.50
2017-10-26T06:47:07.218Z,8.20
2017-10-26T06:49:35.250Z,9.68
2017-10-26T06:52:06.789Z,9.20
2017-10-26T06:54:34.762Z,9.57
2017-10-26T06:57:02.717Z,10.70
2017-10-26T06:59:31.501Z,10.90
2017-10-26T07:01:59.467Z,9.35
2017-10-26T07:04:27.449Z,8.98
2017-10-26T07:06:55.369Z,16.83
2017-10-26T07:09:23.351Z,12.52
2017-10-26T07:11:51.264Z,13.60
2017-10-26T07:14:19.988Z,8.88
2017-10-26T07:16:47.901Z,9.77
2017-10-26T07:19:15.880Z,17.20
2017-10-26T07:21:44.560Z,11.93
2017-10-26T07:24:12.528Z,16.77
2017-10-26T07:26:40.433Z,12.57
2017-10-26T07:29:08.427Z,13.13
2017-10-26T07:31:36.374Z,13.23
2017-10-26T07:34:04.333Z,13.53
2017-10-26T07:36:32.263Z,9.90
2017-10-26T07:39:00.234Z,10.83
2017-10-26T07:41:28.184Z,10.50
2017-10-26T07:43:56.407Z,11.90
2017-10-26T07:46:24.381Z,12.07
2017-10-26T07:48:52.335Z,10.63
2017-10-26T07:51:20.324Z,11.43
2017-10-26T07:53:48.250Z,14.10
2017-10-26T07:56:16.241Z,12.87
2017-10-26T07:58:44.173Z,12.80
2017-10-26T08:01:12.189Z,13.43
2017-10-26T08:03:40.096Z,12.53
2017-10-26T08:06:08.117Z,11.00
2017-10-26T08:08:36.069Z,18.03
2017-10-26T08:11:04.056Z,10.77
2017-10-26T08:13:33.200Z,14.40
2017-10-26T08:16:01.220Z,11.40
2017-10-26T08:18:29.161Z,9.57
2017-10-26T08:20:57.195Z,9.23
2017-10-26T08:23:25.237Z,11.47
2017-10-26T08:25:53.256Z,8.77
2017-10-26T08:28:21.203Z,8.60
2017-10-26T08:30:49.947Z,7.17
2017-10-26T08:33:17.850Z,12.63
2017-10-26T08:35:46.602Z,9.07
2017-10-26T08:38:14.524Z,8.40
2017-10-26T08:40:42.502Z,9.67
2017-10-26T08:43:10.665Z,7.37
2017-10-26T08:45:38.631Z,11.33
2017-10-26T08:48:07.325Z,10.27
2017-10-26T08:50:35.330Z,10.10
2017-10-26T08:53:03.273Z,6.90
2017-10-26T08:55:31.326Z,8.63
2017-10-26T08:58:00.067Z,8.27
2017-10-26T09:00:27.963Z,7.80
2017-10-26T09:02:55.990Z,7.70
2017-10-26T09:05:23.965Z,8.90
2017-10-26T09:07:51.921Z,9.47
2017-10-26T09:10:19.893Z,7.33
2017-10-26T09:12:47.905Z,7.73
2017-10-26T09:15:16.843Z,7.60
2017-10-26T09:17:45.632Z,6.63
2017-10-26T09:20:13.616Z,6.77
2017-10-26T09:22:41.654Z,6.03
2017-10-26T09:25:09.622Z,6.67
2017-10-26T09:27:37.649Z,7.00
2017-10-26T09:30:05.634Z,6.33
2017-10-26T09:32:33.664Z,8.00
2017-10-26T09:35:01.722Z,7.13
2017-10-26T09:37:30.514Z,7.20
2017-10-26T09:39:58.511Z,9.10
2017-10-26T09:42:27.080Z,6.90
2017-10-26T09:44:55.049Z,10.13
2017-10-26T09:47:23.065Z,7.07
2017-10-26T09:49:51.054Z,7.00
2017-10-26T09:52:19.069Z,9.20
2017-10-26T09:54:47.411Z,13.70
2017-10-26T09:57:15.927Z,6.70
2017-10-26T09:59:47.088Z,8.67
2017-10-26T10:02:15.344Z,6.30
2017-10-26T10:04:43.297Z,6.50
2017-10-26T10:07:11.309Z,7.60
2017-10-26T10:09:39.367Z,6.10
2017-10-26T10:12:07.408Z,6.10
2017-10-26T10:14:36.171Z,6.20
2017-10-26T10:17:04.211Z,6.60
2017-10-26T10:19:32.485Z,6.83
2017-10-26T10:22:00.517Z,7.07
2017-10-26T10:24:28.916Z,5.77
2017-10-26T10:26:56.963Z,11.77
2017-10-26T10:29:25.012Z,5.10
2017-10-26T10:31:53.000Z,7.20
2017-10-26T10:34:21.054Z,10.10
2017-10-26T10:36:49.065Z,5.60
2017-10-26T10:39:17.886Z,5.30
2017-10-26T10:41:45.875Z,5.40
2017-10-26T10:44:14.003Z,5.17
2017-10-26T10:46:42.357Z,4.60
2017-10-26T10:49:10.493Z,6.63
2017-10-26T10:51:38.504Z,4.80
2017-10-26T10:54:06.527Z,7.00
2017-10-26T10:56:34.516Z,4.30
2017-10-26T10:59:07.994Z,3.70
2017-10-26T11:01:36.011Z,3.90
2017-10-26T11:04:04.142Z,8.20
2017-10-26T11:06:32.120Z,7.00
2017-10-26T11:09:00.175Z,3.77
2017-10-26T11:11:28.195Z,4.93
2017-10-26T11:13:56.283Z,7.13
2017-10-26T11:16:24.271Z,4.10
2017-10-26T11:18:52.334Z,5.63
2017-10-26T11:21:20.355Z,7.80
2017-10-26T11:23:48.677Z,5.37
2017-10-26T11:26:16.686Z,4.57
2017-10-26T11:28:46.746Z,2.93
2017-10-26T11:31:14.742Z,2.97
2017-10-26T11:33:42.802Z,5.10
2017-10-26T11:36:11.464Z,3.23
2017-10-26T11:38:39.612Z,5.40
2017-10-26T11:41:11.108Z,3.00
2017-10-26T11:43:39.386Z,3.70
2017-10-26T11:46:08.437Z,2.83
2017-10-26T11:48:36.531Z,3.53
2017-10-26T11:51:04.565Z,4.00
2017-10-26T11:53:32.633Z,3.00
2017-10-26T11:56:00.675Z,2.03
2017-10-26T11:58:28.716Z,2.40
2017-10-26T12:00:56.751Z,5.20
2017-10-26T12:03:25.574Z,2.27
2017-10-26T12:05:53.617Z,4.20
2017-10-26T12:08:21.598Z,3.53
2017-10-26T12:10:49.680Z,2.43
2017-10-26T12:13:17.686Z,2.43
2017-10-26T12:15:45.709Z,2.73
2017-10-26T12:18:13.698Z,5.47
2017-10-26T12:20:41.753Z,3.03
2017-10-26T12:23:09.799Z,3.30
2017-10-26T12:25:37.833Z,5.17
2017-10-26T12:28:05.833Z,4.10
2017-10-26T12:30:33.982Z,4.23
2017-10-26T12:33:01.993Z,3.63
2017-10-26T12:35:30.840Z,3.93
2017-10-26T12:37:58.826Z,2.13
2017-10-26T12:40:26.898Z,5.83
2017-10-26T12:42:54.905Z,5.30
2017-10-26T12:45:22.967Z,3.33
2017-10-26T12:47:51.735Z,3.10
2017-10-26T12:50:19.797Z,2.87
2017-10-26T12:52:47.917Z,2.60
2017-10-26T12:55:15.986Z,2.10
2017-10-26T12:57:43.994Z,3.20
2017-10-26T13:00:12.008Z,3.80
2017-10-26T13:02:40.881Z,2.93
2017-10-26T13:05:08.851Z,2.70
2017-10-26T13:07:36.950Z,4.67
2017-10-26T13:10:05.705Z,2.40
2017-10-26T13:12:33.739Z,2.70
2017-10-26T13:15:02.261Z,5.40
2017-10-26T13:17:30.277Z,3.83
2017-10-26T13:19:59.044Z,3.73
2017-10-26T13:22:31.491Z,3.00
2017-10-26T13:24:59.517Z,4.33
2017-10-26T13:27:27.574Z,7.33
2017-10-26T13:29:55.528Z,3.27
2017-10-26T13:32:23.521Z,3.33
2017-10-26T13:34:51.465Z,9.43
2017-10-26T13:37:19.489Z,5.33
2017-10-26T13:39:47.447Z,4.60
2017-10-26T13:42:15.503Z,3.47
2017-10-26T13:44:43.476Z,3.20
2017-10-26T13:47:11.476Z,3.70
2017-10-26T13:49:39.420Z,9.23
2017-10-26T13:52:07.672Z,5.37
2017-10-26T13:54:35.650Z,3.83
2017-10-26T13:57:03.668Z,3.03
2017-10-26T13:59:31.640Z,5.00
2017-10-26T14:01:59.678Z,3.37
2017-10-26T14:04:28.402Z,3.77
2017-10-26T14:06:56.423Z,3.83
2017-10-26T14:09:24.388Z,5.40
2017-10-26T14:11:52.380Z,5.43
2017-10-26T14:14:21.125Z,4.20
2017-10-26T14:16:49.134Z,4.20
2017-10-26T14:19:17.096Z,4.40
2017-10-26T14:21:45.063Z,7.30
2017-10-26T14:24:13.771Z,3.50
2017-10-26T14:26:41.766Z,3.10
2017-10-26T14:29:09.761Z,4.77
2017-10-26T14:31:37.745Z,4.10
2017-10-26T14:34:05.817Z,5.93
2017-10-26T14:36:33.926Z,3.87
2017-10-26T14:39:01.890Z,4.20
2017-10-26T14:41:30.665Z,3.87
2017-10-26T14:43:58.699Z,5.07
2017-10-26T14:46:26.709Z,4.77
2017-10-26T14:48:54.706Z,5.53
2017-10-26T14:51:22.716Z,4.77
2017-10-26T14:53:50.642Z,5.80
2017-10-26T14:56:19.394Z,4.70
2017-10-26T14:58:47.319Z,4.30
2017-10-26T15:01:15.277Z,5.63
2017-10-26T15:03:43.206Z,5.30
2017-10-26T15:06:11.208Z,5.13
2017-10-26T15:08:39.145Z,5.77
2017-10-26T15:11:07.120Z,7.50
2017-10-26T15:13:35.214Z,4.90
2017-10-26T15:16:03.197Z,7.53
2017-10-26T15:18:31.125Z,5.40
2017-10-26T15:20:59.090Z,5.17
2017-10-26T15:23:27.012Z,3.70
2017-10-26T15:25:54.975Z,9.03
2017-10-26T15:28:22.889Z,6.10
2017-10-26T15:30:51.253Z,5.00
2017-10-26T15:33:19.204Z,6.90
2017-10-26T15:35:47.130Z,6.33
2017-10-26T15:38:15.076Z,7.30
2017-10-26T15:40:43.014Z,6.07
2017-10-26T15:43:13.083Z,6.40
2017-10-26T15:45:44.326Z,5.60
2017-10-26T15:48:12.299Z,3.80
2017-10-26T15:50:40.241Z,4.87
2017-10-26T15:53:08.206Z,4.83
2017-10-26T15:55:36.138Z,5.53
2017-10-26T15:58:04.136Z,7.00
2017-10-26T16:00:32.041Z,7.40
2017-10-26T16:03:00.093Z,3.63
2017-10-26T16:05:27.998Z,3.60
2017-10-26T16:07:55.967Z,4.53
2017-10-26T16:10:23.889Z,5.90
2017-10-26T16:12:51.894Z,5.63
2017-10-26T16:15:19.823Z,4.80
2017-10-26T16:17:47.804Z,5.07
2017-10-26T16:20:15.730Z,8.23
2017-10-26T16:22:43.706Z,10.23
2017-10-26T16:25:12.385Z,5.70
2017-10-26T16:27:41.141Z,6.60
2017-10-26T16:30:09.045Z,5.70
2017-10-26T16:32:37.906Z,8.53
2017-10-26T16:35:08.686Z,7.00
2017-10-26T16:37:36.722Z,8.70
2017-10-26T16:40:04.638Z,9.03
2017-10-26T16:42:32.637Z,6.20
2017-10-26T16:45:00.728Z,12.20
2017-10-26T16:47:29.255Z,11.20
2017-10-26T16:49:57.186Z,8.10
2017-10-26T16:52:25.181Z,12.63
2017-10-26T16:54:53.120Z,9.30
2017-10-26T16:57:24.044Z,7.50
2017-10-26T16:59:52.308Z,13.13
2017-10-26T17:02:21.421Z,16.43
2017-10-26T17:04:49.341Z,7.10
2017-10-26T17:07:17.320Z,10.15
2017-10-26T17:09:45.227Z,8.73
2017-10-26T17:12:13.240Z,7.00
2017-10-26T17:14:41.163Z,11.80
2017-10-26T17:17:09.125Z,7.00
2017-10-26T17:19:37.044Z,8.30
2017-10-26T17:22:05.045Z,8.03
2017-10-26T17:24:32.952Z,10.73
2017-10-26T17:27:00.926Z,6.10
2017-10-26T17:29:28.885Z,6.13
2017-10-26T17:31:56.868Z,5.50
2017-10-26T17:34:24.798Z,4.10
2017-10-26T17:36:52.775Z,4.03
2017-10-26T17:39:21.467Z,3.57
2017-10-26T17:41:49.445Z,6.23
2017-10-26T17:44:17.354Z,3.13
2017-10-26T17:46:46.095Z,4.40
2017-10-26T17:49:14.043Z,3.80
2017-10-26T17:51:42.003Z,8.60
2017-10-26T17:54:10.005Z,6.43
2017-10-26T17:56:38.013Z,4.13
2017-10-26T17:59:05.925Z,7.00
2017-10-26T18:01:33.905Z,6.07
2017-10-26T18:04:01.886Z,6.57
2017-10-26T18:06:29.862Z,6.80
2017-10-26T18:08:57.757Z,5.57
2017-10-26T18:11:25.698Z,6.50
2017-10-26T18:13:53.690Z,5.00
2017-10-26T18:16:21.633Z,12.63
2017-10-26T18:18:50.381Z,6.73
2017-10-26T18:21:19.116Z,7.60
2017-10-26T18:23:47.210Z,11.20
2017-10-26T18:26:15.131Z,7.00
2017-10-26T18:28:43.107Z,4.70
2017-10-26T18:31:11.016Z,5.50
2017-10-26T18:33:39.026Z,6.27
2017-10-26T18:36:06.966Z,13.93
2017-10-26T18:38:35.281Z,4.87
2017-10-26T18:41:03.478Z,6.10
2017-10-26T18:43:31.464Z,7.07
2017-10-26T18:45:59.352Z,7.73
2017-10-26T18:48:27.438Z,6.33
2017-10-26T18:50:55.381Z,7.27
2017-10-26T18:53:23.428Z,7.80
2017-10-26T18:55:51.320Z,8.23
2017-10-26T18:58:19.295Z,5.80
2017-10-26T19:00:47.245Z,11.60
2017-10-26T19:03:15.338Z,7.07
2017-10-26T19:05:43.290Z,6.40
2017-10-26T19:08:11.278Z,5.10
2017-10-26T19:10:39.212Z,6.50
2017-10-26T19:13:07.143Z,6.70
2017-10-26T19:15:37.446Z,5.80
2017-10-26T19:18:08.518Z,9.97
2017-10-26T19:20:36.721Z,6.00
2017-10-26T19:23:05.386Z,5.10
2017-10-26T19:25:34.354Z,5.50
2017-10-26T19:28:02.963Z,6.00
2017-10-26T19:30:31.026Z,6.47
2017-10-26T19:33:01.961Z,5.83
2017-10-26T19:35:30.831Z,7.70
2017-10-26T19:38:00.038Z,6.97
2017-10-26T19:40:28.799Z,8.70
2017-10-26T19:42:57.300Z,7.67
2017-10-26T19:45:26.281Z,9.00
2017-10-26T19:47:55.528Z,9.53
2017-10-26T19:50:24.371Z,9.97
2017-10-26T19:52:53.515Z,7.17
2017-10-26T19:55:22.480Z,5.30
2017-10-26T19:57:51.265Z,8.97
2017-10-26T20:00:21.883Z,10.17
2017-10-26T20:02:50.986Z,8.60
2017-10-26T20:05:19.986Z,8.67
2017-10-26T20:07:49.041Z,9.30
2017-10-26T20:10:18.895Z,9.80
2017-10-26T20:12:54.090Z,9.30
2017-10-26T20:15:23.509Z,8.60
2017-10-26T20:17:53.397Z,6.40
2017-10-26T20:20:21.896Z,7.63
2017-10-26T20:22:50.541Z,9.67
2017-10-26T20:25:18.895Z,11.17
2017-10-26T20:27:48.342Z,13.20
2017-10-26T20:30:17.263Z,10.73
2017-10-26T20:32:49.509Z,13.63
2017-10-26T20:35:19.274Z,11.57
2017-10-26T20:37:47.939Z,11.60
2017-10-26T20:40:17.805Z,11.83
2017-10-26T20:42:48.218Z,13.63
2017-10-26T20:45:17.410Z,9.83
2017-10-26T20:47:46.487Z,12.40
2017-10-26T20:50:20.743Z,9.87
2017-10-26T20:52:54.848Z,11.00
2017-10-26T20:55:29.251Z,8.90
2017-10-26T20:58:03.459Z,8.03
2017-10-26T21:00:38.395Z,13.77
2017-10-26T21:06:20.672Z,11.60
2017-10-26T21:08:54.231Z,13.13
2017-10-26T21:11:27.763Z,10.60
2017-10-26T21:14:01.413Z,9.47
2017-10-26T21:16:29.402Z,12.20
2017-10-26T21:18:57.387Z,11.67
2017-10-26T21:21:25.323Z,13.50
2017-10-26T21:23:53.456Z,11.93
2017-10-26T21:26:21.392Z,13.07
2017-10-26T21:28:49.399Z,12.00
2017-10-26T21:31:17.396Z,11.50
2017-10-26T21:33:52.921Z,10.87
2017-10-26T21:36:20.874Z,12.52
2017-10-26T21:38:48.853Z,12.93
2017-10-26T21:41:17.181Z,15.20
2017-10-26T21:43:45.207Z,12.60
2017-10-26T21:46:13.146Z,11.93
2017-10-26T21:48:41.164Z,12.35
2017-10-26T21:51:10.947Z,13.50
2017-10-26T21:53:38.937Z,13.10
2017-10-26T21:56:06.872Z,15.60
2017-10-26T21:58:34.877Z,13.93
2017-10-26T22:01:02.824Z,11.50
2017-10-26T22:03:30.817Z,11.80
2017-10-26T22:05:59.551Z,15.63
2017-10-26T22:08:27.538Z,14.13
2017-10-26T22:10:55.502Z,10.20
2017-10-26T22:13:23.440Z,13.97
2017-10-26T22:15:51.427Z,14.03
2017-10-26T22:18:19.383Z,12.60
2017-10-26T22:20:47.392Z,14.07
2017-10-26T22:23:15.530Z,12.20
2017-10-26T22:25:43.531Z,13.73
2017-10-26T22:28:11.536Z,13.90
2017-10-26T22:30:39.572Z,14.30
2017-10-26T22:33:07.490Z,13.43
2017-10-26T22:35:35.460Z,15.53
2017-10-26T22:38:03.400Z,13.97
2017-10-26T22:40:31.411Z,14.67
2017-10-26T22:42:59.335Z,18.50
2017-10-26T22:45:27.321Z,18.03
2017-10-26T22:47:58.042Z,16.13
2017-10-26T22:50:26.040Z,12.77
2017-10-26T22:52:58.139Z,13.57
2017-10-26T22:55:26.137Z,12.43
2017-10-26T22:57:54.109Z,12.83
2017-10-26T23:00:22.087Z,14.20
2017-10-26T23:02:50.019Z,13.95
2017-10-26T23:05:18.130Z,15.30
2017-10-26T23:07:46.082Z,16.55
2017-10-26T23:10:14.101Z,24.33
2017-10-26T23:12:42.074Z,19.40
2017-10-26T23:15:10.832Z,22.48
2017-10-26T23:17:38.796Z,22.40
2017-10-26T23:20:06.807Z,25.92
2017-10-26T23:22:34.756Z,24.08
2017-10-26T23:25:02.823Z,22.27
2017-10-26T23:27:30.787Z,24.97
2017-10-26T23:29:58.780Z,23.60
2017-10-26T23:32:27.510Z,21.50
2017-10-26T23:34:55.501Z,22.87
2017-10-26T23:37:23.457Z,20.65
2017-10-26T23:39:51.448Z,23.23
2017-10-26T23:42:19.430Z,24.73
2017-10-26T23:44:47.426Z,25.05
2017-10-26T23:47:15.378Z,22.52
2017-10-26T23:49:43.318Z,19.20
2017-10-26T23:52:11.326Z,20.73
2017-10-26T23:54:39.293Z,17.40
2017-10-26T23:57:07.313Z,11.25
2017-10-26T23:59:35.234Z,10.35
